sensor_id;sensor_type;location;lat;lon;timestamp;temperature;humidity
14144;DHT22;7152;48.348;10.980;2024-01-30T16:38:56;4.40;99.90
14144;DHT22;7152;48.348;10.980;2024-01-30T16:41:24;4.30;99.90
14144;DHT22;7152;48.348;10.980;2024-01-30T16:43:51;4.30;99.90
14144;DHT22;7152;48.348;10.980;2024-01-30T16:46:17;4.20;99.90
14144;DHT22;7152;48.348;10.980;2024-01-30T16:48:43;4.30;99.90
14144;DHT22;7152;48.348;10.980;2024-01-30T16:51:09;4.30;99.90
14144;DHT22;7152;48.348;10.980;2024-01-30T16:53:35;4.30;99.90
14144;DHT22;7152;48.348;10.980;2024-01-30T16:56:02;4.30;99.90
14144;DHT22;7152;48.348;10.980;2024-01-30T16:58:27;4.30;99.90
14144;DHT22;7152;48.348;10.980;2024-01-30T17:00:53;4.30;99.90
14144;DHT22;7152;48.348;10.980;2024-01-30T17:03:19;4.30;99.90
14144;DHT22;7152;48.348;10.980;2024-01-30T17:05:45;4.30;99.90
14144;DHT22;7152;48.348;10.980;2024-01-30T17:08:11;4.30;99.90
14144;DHT22;7152;48.348;10.980;2024-01-30T17:10:36;4.30;99.90
14144;DHT22;7152;48.348;10.980;2024-01-30T17:13:02;4.30;99.90
14144;DHT22;7152;48.348;10.980;2024-01-30T17:15:28;4.30;99.90
14144;DHT22;7152;48.348;10.980;2024-01-30T17:17:54;4.30;99.90
14144;DHT22;7152;48.348;10.980;2024-01-30T17:20:20;4.30;99.90
14144;DHT22;7152;48.348;10.980;2024-01-30T17:22:46;4.30;99.90
14144;DHT22;7152;48.348;10.980;2024-01-30T17:25:12;4.30;99.90
14144;DHT22;7152;48.348;10.980;2024-01-30T17:27:39;4.30;99.90
14144;DHT22;7152;48.348;10.980;2024-01-30T17:30:05;4.30;99.90
14144;DHT22;7152;48.348;10.980;2024-01-30T17:32:32;4.30;99.90
14144;DHT22;7152;48.348;10.980;2024-01-30T17:34:58;4.30;99.90
14144;DHT22;7152;48.348;10.980;2024-01-30T17:37:24;4.30;99.90
14144;DHT22;7152;48.348;10.980;2024-01-30T17:39:49;4.30;99.90
14144;DHT22;7152;48.348;10.980;2024-01-30T17:42:15;4.30;99.90
14144;DHT22;7152;48.348;10.980;2024-01-30T17:44:44;4.30;99.90
14144;DHT22;7152;48.348;10.980;2024-01-30T17:47:10;4.30;99.90
14144;DHT22;7152;48.348;10.980;2024-01-30T17:49:36;4.30;99.90
14144;DHT22;7152;48.348;10.980;2024-01-30T17:52:02;4.30;99.90
14144;DHT22;7152;48.348;10.980;2024-01-30T17:54:28;4.30;99.90
14144;DHT22;7152;48.348;10.980;2024-01-30T17:56:55;4.30;99.90
14144;DHT22;7152;48.348;10.980;2024-01-30T17:59:20;4.30;99.90
14144;DHT22;7152;48.348;10.980;2024-01-30T18:01:48;4.20;99.90
14144;DHT22;7152;48.348;10.980;2024-01-30T18:04:14;4.30;99.90
14144;DHT22;7152;48.348;10.980;2024-01-30T18:06:52;4.20;99.90
14144;DHT22;7152;48.348;10.980;2024-01-30T18:09:22;4.20;99.90
14144;DHT22;7152;48.348;10.980;2024-01-30T18:11:49;4.20;99.90
14144;DHT22;7152;48.348;10.980;2024-01-30T18:14:15;4.10;99.90
14144;DHT22;7152;48.348;10.980;2024-01-30T18:16:41;4.10;99.90
14144;DHT22;7152;48.348;10.980;2024-01-30T18:19:07;4.10;99.90
14144;DHT22;7152;48.348;10.980;2024-01-30T18:21:34;4.10;99.90
14144;DHT22;7152;48.348;10.980;2024-01-30T18:24:00;4.10;99.90
14144;DHT22;7152;48.348;10.980;2024-01-30T18:26:26;4.10;99.90
14144;DHT22;7152;48.348;10.980;2024-01-30T18:28:53;4.00;99.90
14144;DHT22;7152;48.348;10.980;2024-01-30T18:31:22;4.00;99.90
14144;DHT22;7152;48.348;10.980;2024-01-30T18:33:49;4.00;99.90
14144;DHT22;7152;48.348;10.980;2024-01-30T18:36:23;4.00;99.90
14144;DHT22;7152;48.348;10.980;2024-01-30T18:38:51;4.00;99.90
14144;DHT22;7152;48.348;10.980;2024-01-30T18:41:17;3.90;99.90
14144;DHT22;7152;48.348;10.980;2024-01-30T18:43:44;3.90;99.90
14144;DHT22;7152;48.348;10.980;2024-01-30T18:46:10;3.90;99.90
14144;DHT22;7152;48.348;10.980;2024-01-30T18:48:37;3.90;99.90
14144;DHT22;7152;48.348;10.980;2024-01-30T18:51:06;3.90;99.90
14144;DHT22;7152;48.348;10.980;2024-01-30T18:53:32;3.90;99.90
14144;DHT22;7152;48.348;10.980;2024-01-30T18:55:58;3.90;99.90
14144;DHT22;7152;48.348;10.980;2024-01-30T18:58:24;3.80;99.90
14144;DHT22;7152;48.348;10.980;2024-01-30T19:00:50;3.90;99.90
14144;DHT22;7152;48.348;10.980;2024-01-30T19:03:16;3.80;99.90
14144;DHT22;7152;48.348;10.980;2024-01-30T19:05:44;3.80;99.90
14144;DHT22;7152;48.348;10.980;2024-01-30T19:08:10;3.80;99.90
14144;DHT22;7152;48.348;10.980;2024-01-30T19:10:36;3.90;99.90
14144;DHT22;7152;48.348;10.980;2024-01-30T19:13:02;3.90;99.90
14144;DHT22;7152;48.348;10.980;2024-01-30T19:15:32;3.90;99.90
14144;DHT22;7152;48.348;10.980;2024-01-30T19:17:58;3.90;99.90
14144;DHT22;7152;48.348;10.980;2024-01-30T19:20:26;3.80;99.90
14144;DHT22;7152;48.348;10.980;2024-01-30T19:22:52;3.90;99.90
14144;DHT22;7152;48.348;10.980;2024-01-30T19:25:18;3.90;99.90
14144;DHT22;7152;48.348;10.980;2024-01-30T19:27:44;3.90;99.90
14144;DHT22;7152;48.348;10.980;2024-01-30T19:30:10;3.80;99.90
14144;DHT22;7152;48.348;10.980;2024-01-30T19:32:36;3.80;99.90
14144;DHT22;7152;48.348;10.980;2024-01-30T19:35:03;3.80;99.90
14144;DHT22;7152;48.348;10.980;2024-01-30T19:37:29;3.80;99.90
14144;DHT22;7152;48.348;10.980;2024-01-30T19:39:58;3.90;99.90
14144;DHT22;7152;48.348;10.980;2024-01-30T19:42:24;3.90;99.90
14144;DHT22;7152;48.348;10.980;2024-01-30T19:44:50;3.90;99.90
14144;DHT22;7152;48.348;10.980;2024-01-30T19:47:16;3.90;99.90
14144;DHT22;7152;48.348;10.980;2024-01-30T19:49:42;3.90;99.90
14144;DHT22;7152;48.348;10.980;2024-01-30T19:52:08;3.90;99.90
14144;DHT22;7152;48.348;10.980;2024-01-30T19:54:36;3.90;99.90
14144;DHT22;7152;48.348;10.980;2024-01-30T19:57:05;3.90;99.90
14144;DHT22;7152;48.348;10.980;2024-01-30T19:59:31;3.90;99.90
14144;DHT22;7152;48.348;10.980;2024-01-30T20:01:57;3.90;99.90
14144;DHT22;7152;48.348;10.980;2024-01-30T20:04:24;3.80;99.90
14144;DHT22;7152;48.348;10.980;2024-01-30T20:06:50;3.80;99.90
14144;DHT22;7152;48.348;10.980;2024-01-30T20:09:16;3.80;99.90
14144;DHT22;7152;48.348;10.980;2024-01-30T20:11:42;3.80;99.90
14144;DHT22;7152;48.348;10.980;2024-01-30T20:14:08;3.70;99.90
14144;DHT22;7152;48.348;10.980;2024-01-30T20:16:37;3.70;99.90
14144;DHT22;7152;48.348;10.980;2024-01-30T20:19:04;3.70;99.90
14144;DHT22;7152;48.348;10.980;2024-01-30T20:21:30;3.70;99.90
14144;DHT22;7152;48.348;10.980;2024-01-30T20:23:57;3.70;99.90
14144;DHT22;7152;48.348;10.980;2024-01-30T20:26:23;3.60;99.90
14144;DHT22;7152;48.348;10.980;2024-01-30T20:28:50;3.70;99.90
14144;DHT22;7152;48.348;10.980;2024-01-30T20:31:23;3.70;99.90
14144;DHT22;7152;48.348;10.980;2024-01-30T20:33:50;3.70;99.90
14144;DHT22;7152;48.348;10.980;2024-01-30T20:36:17;3.70;99.90
14144;DHT22;7152;48.348;10.980;2024-01-30T20:38:44;3.70;99.90
14144;DHT22;7152;48.348;10.980;2024-01-30T20:41:10;3.70;99.90
14144;DHT22;7152;48.348;10.980;2024-01-30T20:43:37;3.70;99.90
14144;DHT22;7152;48.348;10.980;2024-01-30T20:46:04;3.80;99.90
14144;DHT22;7152;48.348;10.980;2024-01-30T20:48:32;3.80;99.90
14144;DHT22;7152;48.348;10.980;2024-01-30T20:50:58;3.80;99.90
14144;DHT22;7152;48.348;10.980;2024-01-30T20:53:24;3.80;99.90
14144;DHT22;7152;48.348;10.980;2024-01-30T20:55:50;3.90;99.90
14144;DHT22;7152;48.348;10.980;2024-01-30T20:58:16;3.90;99.90
14144;DHT22;7152;48.348;10.980;2024-01-30T21:00:42;3.90;99.90
14144;DHT22;7152;48.348;10.980;2024-01-30T21:03:12;3.90;99.90
14144;DHT22;7152;48.348;10.980;2024-01-30T21:05:38;3.90;99.90
14144;DHT22;7152;48.348;10.980;2024-01-30T21:08:04;3.90;99.90
14144;DHT22;7152;48.348;10.980;2024-01-30T21:10:30;3.90;99.90
14144;DHT22;7152;48.348;10.980;2024-01-30T21:12:56;3.90;99.90
14144;DHT22;7152;48.348;10.980;2024-01-30T21:15:22;3.90;99.90
14144;DHT22;7152;48.348;10.980;2024-01-30T21:17:48;3.90;99.90
14144;DHT22;7152;48.348;10.980;2024-01-30T21:20:14;3.90;99.90
14144;DHT22;7152;48.348;10.980;2024-01-30T21:22:40;3.90;99.90
14144;DHT22;7152;48.348;10.980;2024-01-30T21:25:07;3.90;99.90
14144;DHT22;7152;48.348;10.980;2024-01-30T21:27:33;3.90;99.90
14144;DHT22;7152;48.348;10.980;2024-01-30T21:29:59;3.90;99.90
14144;DHT22;7152;48.348;10.980;2024-01-30T21:32:25;3.90;99.90
14144;DHT22;7152;48.348;10.980;2024-01-30T21:34:51;3.90;99.90
14144;DHT22;7152;48.348;10.980;2024-01-30T21:37:17;3.90;99.90
14144;DHT22;7152;48.348;10.980;2024-01-30T21:39:43;3.90;99.90
14144;DHT22;7152;48.348;10.980;2024-01-30T21:42:09;4.00;99.90
14144;DHT22;7152;48.348;10.980;2024-01-30T21:44:35;4.00;99.90
14144;DHT22;7152;48.348;10.980;2024-01-30T21:47:00;4.00;99.90
14144;DHT22;7152;48.348;10.980;2024-01-30T21:49:26;4.00;99.90
14144;DHT22;7152;48.348;10.980;2024-01-30T21:51:53;4.00;99.90
14144;DHT22;7152;48.348;10.980;2024-01-30T21:54:19;4.00;99.90
14144;DHT22;7152;48.348;10.980;2024-01-30T21:56:45;4.00;99.90
14144;DHT22;7152;48.348;10.980;2024-01-30T21:59:11;4.00;99.90
14144;DHT22;7152;48.348;10.980;2024-01-30T22:01:37;4.00;99.90
14144;DHT22;7152;48.348;10.980;2024-01-30T22:04:02;4.10;99.90
14144;DHT22;7152;48.348;10.980;2024-01-30T22:06:28;4.10;99.90
14144;DHT22;7152;48.348;10.980;2024-01-30T22:08:55;4.20;99.90
14144;DHT22;7152;48.348;10.980;2024-01-30T22:11:21;4.20;99.90
14144;DHT22;7152;48.348;10.980;2024-01-30T22:13:47;4.20;99.90
14144;DHT22;7152;48.348;10.980;2024-01-30T22:16:13;4.30;99.90
14144;DHT22;7152;48.348;10.980;2024-01-30T22:18:40;4.30;99.90
14144;DHT22;7152;48.348;10.980;2024-01-30T22:21:06;4.40;99.90
14144;DHT22;7152;48.348;10.980;2024-01-30T22:23:36;4.40;99.90
14144;DHT22;7152;48.348;10.980;2024-01-30T22:26:02;4.50;99.90
14144;DHT22;7152;48.348;10.980;2024-01-30T22:28:28;4.60;99.90
14144;DHT22;7152;48.348;10.980;2024-01-30T22:30:53;4.60;99.90
14144;DHT22;7152;48.348;10.980;2024-01-30T22:33:19;4.60;99.90
14144;DHT22;7152;48.348;10.980;2024-01-30T22:35:46;4.60;99.90
14144;DHT22;7152;48.348;10.980;2024-01-30T22:38:12;4.60;99.90
14144;DHT22;7152;48.348;10.980;2024-01-30T22:40:38;4.70;99.90
14144;DHT22;7152;48.348;10.980;2024-01-30T22:43:04;4.70;99.90
